Rising Sun, Mississippi
Current Conditions -  °F | °C
As of 1:53 PM on Thursday 23 Oct 2014 (Local Time) from KGWO Reporting Station
Clear Clear  
Wind Chill: 64°   Ceiling: Unl
Heat Index: 64°   Visibility: 10mi
Dew Point: 45°   Wind: 3mph
Humidity: 50%   Direction: 360°N
Pressure: 30.13"   Gusts: NA
Location:  33.3926°N, 90.1584°W
Report Text: KGWO 231853Z AUTO 36003KT 10SM CLR 18/07 A3013 RMK AO2 SLP201 T01780072 TSNO
Loading
Personal Weather Stations






























Interactive Weather Map
Tropical Storm Tracking
New forecast layout! Learn more

10-Day Weather Forecast

Advertisements
Track Severe Weather on mobile